sensor_id;sensor_type;location;lat;lon;timestamp;pressure;altitude;pressure_sealevel;temperature;humidity
80333;BME280;69652;51.864;-2.246;2023-04-25T08:29:39;101861.59;;;7.00;65.82
80333;BME280;69652;51.864;-2.246;2023-04-25T08:32:05;101858.84;;;6.95;64.56
80333;BME280;69652;51.864;-2.246;2023-04-25T08:34:31;101864.19;;;6.89;64.61
80333;BME280;69652;51.864;-2.246;2023-04-25T08:36:56;101856.66;;;6.92;63.55
80333;BME280;69652;51.864;-2.246;2023-04-25T08:39:21;101855.00;;;6.91;64.52
80333;BME280;69652;51.864;-2.246;2023-04-25T08:41:47;101854.81;;;6.97;64.19
80333;BME280;69652;51.864;-2.246;2023-04-25T08:44:13;101849.97;;;6.99;63.40
80333;BME280;69652;51.864;-2.246;2023-04-25T08:46:40;101863.06;;;7.07;64.10
80333;BME280;69652;51.864;-2.246;2023-04-25T08:49:07;101861.97;;;7.08;63.37
80333;BME280;69652;51.864;-2.246;2023-04-25T08:51:36;101865.75;;;7.07;64.75
80333;BME280;69652;51.864;-2.246;2023-04-25T08:54:20;101868.63;;;7.22;62.81
80333;BME280;69652;51.864;-2.246;2023-04-25T08:56:49;101873.13;;;7.39;62.45
80333;BME280;69652;51.864;-2.246;2023-04-25T08:59:14;101869.97;;;7.47;62.11
80333;BME280;69652;51.864;-2.246;2023-04-25T09:01:40;101865.63;;;7.46;62.95
80333;BME280;69652;51.864;-2.246;2023-04-25T09:04:05;101866.81;;;7.55;62.37
80333;BME280;69652;51.864;-2.246;2023-04-25T09:06:31;101871.50;;;7.65;60.38
80333;BME280;69652;51.864;-2.246;2023-04-25T09:09:06;101870.03;;;7.79;61.35
80333;BME280;69652;51.864;-2.246;2023-04-25T09:11:32;101870.13;;;7.94;61.27
80333;BME280;69652;51.864;-2.246;2023-04-25T09:14:17;101869.41;;;8.04;62.08
80333;BME280;69652;51.864;-2.246;2023-04-25T09:19:26;101857.13;;;8.23;60.50
80333;BME280;69652;51.864;-2.246;2023-04-25T09:21:59;101857.88;;;8.13;60.13
80333;BME280;69652;51.864;-2.246;2023-04-25T09:24:39;101866.16;;;8.33;59.26
80333;BME280;69652;51.864;-2.246;2023-04-25T09:27:06;101865.09;;;8.35;60.05
80333;BME280;69652;51.864;-2.246;2023-04-25T09:29:36;101861.69;;;8.49;58.67
80333;BME280;69652;51.864;-2.246;2023-04-25T09:32:21;101860.41;;;8.67;58.17
80333;BME280;69652;51.864;-2.246;2023-04-25T09:34:49;101858.66;;;8.93;59.46
80333;BME280;69652;51.864;-2.246;2023-04-25T09:39:54;101858.38;;;8.99;55.62
80333;BME280;69652;51.864;-2.246;2023-04-25T09:42:24;101859.00;;;9.17;56.53
80333;BME280;69652;51.864;-2.246;2023-04-25T09:44:55;101856.84;;;9.19;58.70
80333;BME280;69652;51.864;-2.246;2023-04-25T09:47:23;101854.16;;;9.34;59.40
80333;BME280;69652;51.864;-2.246;2023-04-25T09:49:49;101851.47;;;9.39;55.70
80333;BME280;69652;51.864;-2.246;2023-04-25T09:52:17;101846.94;;;10.21;54.71
80333;BME280;69652;51.864;-2.246;2023-04-25T09:54:44;101841.75;;;12.31;50.37
80333;BME280;69652;51.864;-2.246;2023-04-25T09:57:13;101835.59;;;13.91;44.68
80333;BME280;69652;51.864;-2.246;2023-04-25T09:59:43;101829.25;;;14.96;43.59
80333;BME280;69652;51.864;-2.246;2023-04-25T10:02:09;101833.66;;;13.91;44.82
80333;BME280;69652;51.864;-2.246;2023-04-25T10:04:37;101829.47;;;15.36;41.20
80333;BME280;69652;51.864;-2.246;2023-04-25T10:07:06;101822.09;;;16.25;43.38
80333;BME280;69652;51.864;-2.246;2023-04-25T10:09:32;101824.94;;;16.91;39.67
80333;BME280;69652;51.864;-2.246;2023-04-25T10:12:02;101836.03;;;16.46;40.65
80333;BME280;69652;51.864;-2.246;2023-04-25T10:14:30;101823.59;;;16.71;38.86
80333;BME280;69652;51.864;-2.246;2023-04-25T10:16:57;101822.53;;;16.50;40.24
80333;BME280;69652;51.864;-2.246;2023-04-25T10:19:24;101821.94;;;16.61;38.33
80333;BME280;69652;51.864;-2.246;2023-04-25T10:22:00;101824.00;;;16.95;37.24
80333;BME280;69652;51.864;-2.246;2023-04-25T10:24:28;101822.59;;;17.76;40.13
80333;BME280;69652;51.864;-2.246;2023-04-25T10:26:53;101820.94;;;17.14;39.07
80333;BME280;69652;51.864;-2.246;2023-04-25T10:29:24;101818.06;;;17.62;37.38
80333;BME280;69652;51.864;-2.246;2023-04-25T10:31:50;101824.00;;;16.95;38.03
80333;BME280;69652;51.864;-2.246;2023-04-25T10:34:17;101824.41;;;18.35;37.41
80333;BME280;69652;51.864;-2.246;2023-04-25T10:36:43;101817.13;;;17.67;39.47
80333;BME280;69652;51.864;-2.246;2023-04-25T10:39:24;101823.41;;;17.76;38.55
80333;BME280;69652;51.864;-2.246;2023-04-25T10:41:55;101818.25;;;17.75;39.76
80333;BME280;69652;51.864;-2.246;2023-04-25T10:44:21;101812.88;;;17.18;40.74
80333;BME280;69652;51.864;-2.246;2023-04-25T10:46:46;101805.56;;;18.63;37.98
80333;BME280;69652;51.864;-2.246;2023-04-25T10:54:56;101811.38;;;16.86;38.89
80333;BME280;69652;51.864;-2.246;2023-04-25T10:57:42;101801.44;;;17.50;37.32
80333;BME280;69652;51.864;-2.246;2023-04-25T11:02:53;101806.28;;;17.79;38.08
80333;BME280;69652;51.864;-2.246;2023-04-25T11:05:32;101810.97;;;17.53;38.92
80333;BME280;69652;51.864;-2.246;2023-04-25T11:07:58;101812.84;;;18.59;40.00
80333;BME280;69652;51.864;-2.246;2023-04-25T11:10:29;101822.44;;;17.72;38.21
80333;BME280;69652;51.864;-2.246;2023-04-25T11:12:55;101818.72;;;17.85;38.86
80333;BME280;69652;51.864;-2.246;2023-04-25T11:15:21;101822.09;;;17.99;39.68
80333;BME280;69652;51.864;-2.246;2023-04-25T11:17:46;101826.81;;;17.64;41.01
80333;BME280;69652;51.864;-2.246;2023-04-25T11:20:13;101826.50;;;17.66;38.54
80333;BME280;69652;51.864;-2.246;2023-04-25T11:22:41;101821.16;;;17.44;36.42
80333;BME280;69652;51.864;-2.246;2023-04-25T11:25:07;101826.59;;;17.35;38.31
80333;BME280;69652;51.864;-2.246;2023-04-25T11:27:33;101822.25;;;17.60;37.64
80333;BME280;69652;51.864;-2.246;2023-04-25T11:30:13;101826.16;;;17.93;35.63
80333;BME280;69652;51.864;-2.246;2023-04-25T11:32:39;101828.75;;;17.73;36.99
80333;BME280;69652;51.864;-2.246;2023-04-25T11:35:06;101829.25;;;17.66;38.21
80333;BME280;69652;51.864;-2.246;2023-04-25T11:37:32;101821.13;;;17.87;37.25
80333;BME280;69652;51.864;-2.246;2023-04-25T11:40:00;101832.44;;;16.68;39.67
80333;BME280;69652;51.864;-2.246;2023-04-25T11:42:25;101823.06;;;16.30;39.00
80333;BME280;69652;51.864;-2.246;2023-04-25T11:44:51;101825.56;;;16.40;37.62
80333;BME280;69652;51.864;-2.246;2023-04-25T11:47:17;101821.38;;;16.82;38.77
80333;BME280;69652;51.864;-2.246;2023-04-25T11:49:42;101827.41;;;17.10;40.65
80333;BME280;69652;51.864;-2.246;2023-04-25T11:52:08;101815.09;;;16.90;37.97
80333;BME280;69652;51.864;-2.246;2023-04-25T11:54:37;101820.41;;;16.47;39.34
80333;BME280;69652;51.864;-2.246;2023-04-25T11:57:03;101817.31;;;16.79;37.95
80333;BME280;69652;51.864;-2.246;2023-04-25T11:59:29;101824.41;;;15.43;40.19
80333;BME280;69652;51.864;-2.246;2023-04-25T12:01:54;101828.53;;;15.04;40.78
80333;BME280;69652;51.864;-2.246;2023-04-25T12:04:22;101825.88;;;16.78;39.27
80333;BME280;69652;51.864;-2.246;2023-04-25T12:06:51;101819.22;;;17.44;38.79
80333;BME280;69652;51.864;-2.246;2023-04-25T12:09:28;101819.38;;;17.74;38.38
80333;BME280;69652;51.864;-2.246;2023-04-25T12:11:56;101824.72;;;18.81;36.83
80333;BME280;69652;51.864;-2.246;2023-04-25T12:14:33;101808.88;;;19.48;36.44
80333;BME280;69652;51.864;-2.246;2023-04-25T12:17:00;101809.59;;;19.37;35.52
80333;BME280;69652;51.864;-2.246;2023-04-25T12:19:32;101819.31;;;18.17;35.36
80333;BME280;69652;51.864;-2.246;2023-04-25T12:22:00;101825.91;;;15.94;39.74
80333;BME280;69652;51.864;-2.246;2023-04-25T12:24:26;101835.94;;;14.76;40.91
80333;BME280;69652;51.864;-2.246;2023-04-25T12:27:05;101834.13;;;16.16;41.14
80333;BME280;69652;51.864;-2.246;2023-04-25T12:29:34;101822.25;;;18.58;36.82
80333;BME280;69652;51.864;-2.246;2023-04-25T12:31:59;101811.34;;;19.41;34.96
80333;BME280;69652;51.864;-2.246;2023-04-25T12:34:28;101832.00;;;18.38;35.13
80333;BME280;69652;51.864;-2.246;2023-04-25T12:36:53;101828.09;;;18.86;35.96
80333;BME280;69652;51.864;-2.246;2023-04-25T12:39:21;101824.31;;;21.13;34.05
80333;BME280;69652;51.864;-2.246;2023-04-25T12:41:51;101821.56;;;19.95;33.51
80333;BME280;69652;51.864;-2.246;2023-04-25T12:44:20;101824.53;;;20.35;34.36
80333;BME280;69652;51.864;-2.246;2023-04-25T12:46:46;101815.91;;;22.49;31.46
80333;BME280;69652;51.864;-2.246;2023-04-25T12:49:12;101819.84;;;22.16;32.23
80333;BME280;69652;51.864;-2.246;2023-04-25T12:51:38;101808.59;;;23.61;31.50
80333;BME280;69652;51.864;-2.246;2023-04-25T12:54:05;101813.94;;;22.33;32.24
80333;BME280;69652;51.864;-2.246;2023-04-25T12:56:34;101806.34;;;23.67;31.56
80333;BME280;69652;51.864;-2.246;2023-04-25T12:59:00;101801.13;;;24.76;27.80
80333;BME280;69652;51.864;-2.246;2023-04-25T13:01:26;101798.47;;;23.69;28.94
80333;BME280;69652;51.864;-2.246;2023-04-25T13:03:52;101797.38;;;24.38;28.35
80333;BME280;69652;51.864;-2.246;2023-04-25T13:06:19;101800.28;;;24.98;29.39
80333;BME280;69652;51.864;-2.246;2023-04-25T13:08:45;101798.47;;;21.05;31.29
80333;BME280;69652;51.864;-2.246;2023-04-25T13:11:10;101810.09;;;20.38;32.52
80333;BME280;69652;51.864;-2.246;2023-04-25T13:13:36;101825.75;;;18.21;34.59
80333;BME280;69652;51.864;-2.246;2023-04-25T13:16:06;101823.41;;;17.93;34.36
80333;BME280;69652;51.864;-2.246;2023-04-25T13:18:32;101820.22;;;16.43;36.28
80333;BME280;69652;51.864;-2.246;2023-04-25T13:20:58;101824.09;;;16.73;36.63
80333;BME280;69652;51.864;-2.246;2023-04-25T13:23:27;101821.22;;;16.87;35.70
80333;BME280;69652;51.864;-2.246;2023-04-25T13:25:54;101817.97;;;16.45;36.30
80333;BME280;69652;51.864;-2.246;2023-04-25T13:28:20;101821.94;;;16.31;36.80
80333;BME280;69652;51.864;-2.246;2023-04-25T13:30:47;101807.19;;;18.09;35.54
80333;BME280;69652;51.864;-2.246;2023-04-25T13:33:13;101802.41;;;17.28;36.60
80333;BME280;69652;51.864;-2.246;2023-04-25T13:35:39;101801.81;;;18.21;35.17
80333;BME280;69652;51.864;-2.246;2023-04-25T13:38:05;101786.19;;;20.42;31.94
80333;BME280;69652;51.864;-2.246;2023-04-25T13:40:30;101785.47;;;22.33;31.43
80333;BME280;69652;51.864;-2.246;2023-04-25T13:42:57;101770.50;;;24.00;28.51
80333;BME280;69652;51.864;-2.246;2023-04-25T13:45:22;101773.41;;;25.36;27.39
80333;BME280;69652;51.864;-2.246;2023-04-25T13:47:48;101780.28;;;22.31;29.59
80333;BME280;69652;51.864;-2.246;2023-04-25T13:50:14;101769.00;;;22.72;30.62
80333;BME280;69652;51.864;-2.246;2023-04-25T13:52:41;101762.56;;;23.99;27.91
80333;BME280;69652;51.864;-2.246;2023-04-25T13:55:07;101754.91;;;25.17;26.96
80333;BME280;69652;51.864;-2.246;2023-04-25T13:57:34;101754.69;;;25.33;27.28
80333;BME280;69652;51.864;-2.246;2023-04-25T13:59:59;101758.03;;;25.45;26.83
80333;BME280;69652;51.864;-2.246;2023-04-25T14:02:30;101766.84;;;22.30;29.81
80333;BME280;69652;51.864;-2.246;2023-04-25T14:04:55;101777.50;;;20.07;31.22
80333;BME280;69652;51.864;-2.246;2023-04-25T14:07:21;101788.03;;;18.30;33.53
80333;BME280;69652;51.864;-2.246;2023-04-25T14:09:46;101792.63;;;18.09;34.89
80333;BME280;69652;51.864;-2.246;2023-04-25T14:12:12;101785.63;;;17.56;34.56
80333;BME280;69652;51.864;-2.246;2023-04-25T14:14:37;101788.69;;;17.37;37.39
80333;BME280;69652;51.864;-2.246;2023-04-25T14:17:03;101783.84;;;17.08;37.00
80333;BME280;69652;51.864;-2.246;2023-04-25T14:19:29;101796.56;;;16.95;36.28
80333;BME280;69652;51.864;-2.246;2023-04-25T14:21:55;101804.00;;;16.55;36.65
80333;BME280;69652;51.864;-2.246;2023-04-25T14:24:20;101799.50;;;16.20;36.77
80333;BME280;69652;51.864;-2.246;2023-04-25T14:26:46;101789.59;;;16.41;36.71
80333;BME280;69652;51.864;-2.246;2023-04-25T14:29:11;101792.00;;;16.82;35.82
80333;BME280;69652;51.864;-2.246;2023-04-25T14:31:38;101790.84;;;16.66;36.50
80333;BME280;69652;51.864;-2.246;2023-04-25T14:34:04;101786.22;;;17.01;36.20
80333;BME280;69652;51.864;-2.246;2023-04-25T14:36:30;101785.91;;;16.85;38.07
80333;BME280;69652;51.864;-2.246;2023-04-25T14:38:57;101781.06;;;17.00;37.30
80333;BME280;69652;51.864;-2.246;2023-04-25T14:41:23;101752.53;;;20.48;31.96
80333;BME280;69652;51.864;-2.246;2023-04-25T14:43:49;101764.34;;;19.05;32.37
80333;BME280;69652;51.864;-2.246;2023-04-25T14:46:14;101768.84;;;19.84;32.65
80333;BME280;69652;51.864;-2.246;2023-04-25T14:48:40;101756.66;;;20.54;31.34
80333;BME280;69652;51.864;-2.246;2023-04-25T14:51:05;101760.94;;;22.31;30.02
80333;BME280;69652;51.864;-2.246;2023-04-25T14:53:31;101743.91;;;24.19;28.22
80333;BME280;69652;51.864;-2.246;2023-04-25T14:55:57;101752.03;;;22.22;29.59
80333;BME280;69652;51.864;-2.246;2023-04-25T14:58:23;101752.38;;;19.63;32.16
80333;BME280;69652;51.864;-2.246;2023-04-25T15:00:48;101759.19;;;19.45;32.91
80333;BME280;69652;51.864;-2.246;2023-04-25T15:03:14;101759.00;;;19.08;31.04
80333;BME280;69652;51.864;-2.246;2023-04-25T15:05:41;101755.13;;;20.08;32.40
80333;BME280;69652;51.864;-2.246;2023-04-25T15:08:06;101757.78;;;19.72;30.13
80333;BME280;69652;51.864;-2.246;2023-04-25T15:10:32;101762.69;;;17.52;33.64
80333;BME280;69652;51.864;-2.246;2023-04-25T15:12:57;101758.03;;;17.18;34.17
80333;BME280;69652;51.864;-2.246;2023-04-25T15:15:23;101759.50;;;16.50;34.13
80333;BME280;69652;51.864;-2.246;2023-04-25T15:17:49;101766.97;;;16.67;33.19
80333;BME280;69652;51.864;-2.246;2023-04-25T15:20:15;101767.72;;;16.19;35.16
80333;BME280;69652;51.864;-2.246;2023-04-25T15:22:42;101762.53;;;15.78;35.55
80333;BME280;69652;51.864;-2.246;2023-04-25T15:25:17;101766.09;;;16.09;36.24
80333;BME280;69652;51.864;-2.246;2023-04-25T15:27:43;101769.31;;;16.11;35.72
80333;BME280;69652;51.864;-2.246;2023-04-25T15:30:13;101769.44;;;15.75;38.66
80333;BME280;69652;51.864;-2.246;2023-04-25T15:32:46;101765.53;;;15.68;35.68
80333;BME280;69652;51.864;-2.246;2023-04-25T15:35:12;101762.66;;;15.73;36.70
80333;BME280;69652;51.864;-2.246;2023-04-25T15:37:39;101763.09;;;15.88;35.31
80333;BME280;69652;51.864;-2.246;2023-04-25T15:40:11;101767.06;;;16.05;35.16
80333;BME280;69652;51.864;-2.246;2023-04-25T15:42:42;101770.13;;;16.12;36.50
80333;BME280;69652;51.864;-2.246;2023-04-25T15:45:10;101766.44;;;15.85;35.87
80333;BME280;69652;51.864;-2.246;2023-04-25T15:47:37;101769.31;;;15.58;35.69
80333;BME280;69652;51.864;-2.246;2023-04-25T15:50:04;101772.19;;;15.75;35.39
80333;BME280;69652;51.864;-2.246;2023-04-25T15:52:31;101774.50;;;15.46;36.10
80333;BME280;69652;51.864;-2.246;2023-04-25T15:54:57;101761.28;;;15.84;35.63
80333;BME280;69652;51.864;-2.246;2023-04-25T15:57:23;101764.94;;;16.02;35.04
80333;BME280;69652;51.864;-2.246;2023-04-25T15:59:48;101755.53;;;15.49;36.98
80333;BME280;69652;51.864;-2.246;2023-04-25T16:02:15;101759.56;;;15.97;35.62
80333;BME280;69652;51.864;-2.246;2023-04-25T16:04:41;101750.28;;;16.06;35.14
80333;BME280;69652;51.864;-2.246;2023-04-25T16:07:06;101750.03;;;16.16;34.65
80333;BME280;69652;51.864;-2.246;2023-04-25T16:09:33;101755.63;;;15.80;34.71
80333;BME280;69652;51.864;-2.246;2023-04-25T16:11:59;101746.22;;;15.73;34.97
80333;BME280;69652;51.864;-2.246;2023-04-25T16:14:25;101743.16;;;15.97;35.88
80333;BME280;69652;51.864;-2.246;2023-04-25T16:16:50;101735.44;;;15.99;37.19
80333;BME280;69652;51.864;-2.246;2023-04-25T16:19:16;101754.13;;;15.74;35.35
80333;BME280;69652;51.864;-2.246;2023-04-25T16:21:42;101744.09;;;15.47;36.60
80333;BME280;69652;51.864;-2.246;2023-04-25T16:24:08;101740.38;;;15.21;37.99
80333;BME280;69652;51.864;-2.246;2023-04-25T16:26:33;101740.13;;;16.46;35.73
80333;BME280;69652;51.864;-2.246;2023-04-25T16:29:01;101728.09;;;18.23;34.58
80333;BME280;69652;51.864;-2.246;2023-04-25T16:31:27;101715.59;;;19.80;31.00
80333;BME280;69652;51.864;-2.246;2023-04-25T16:33:52;101722.19;;;19.55;32.57
80333;BME280;69652;51.864;-2.246;2023-04-25T16:36:18;101718.72;;;20.15;30.29
80333;BME280;69652;51.864;-2.246;2023-04-25T16:38:43;101710.22;;;21.65;29.66
80333;BME280;69652;51.864;-2.246;2023-04-25T16:41:09;101716.91;;;19.62;31.03
80333;BME280;69652;51.864;-2.246;2023-04-25T16:43:35;101713.78;;;20.33;30.56
80333;BME280;69652;51.864;-2.246;2023-04-25T16:46:04;101719.38;;;21.25;28.59
80333;BME280;69652;51.864;-2.246;2023-04-25T16:48:30;101709.22;;;20.37;29.65
80333;BME280;69652;51.864;-2.246;2023-04-25T16:50:55;101708.00;;;21.86;28.24
80333;BME280;69652;51.864;-2.246;2023-04-25T16:53:21;101708.88;;;19.57;30.00
80333;BME280;69652;51.864;-2.246;2023-04-25T16:55:47;101714.47;;;18.35;31.15
80333;BME280;69652;51.864;-2.246;2023-04-25T16:58:12;101714.66;;;16.54;34.93
80333;BME280;69652;51.864;-2.246;2023-04-25T17:00:39;101711.94;;;16.54;35.31
80333;BME280;69652;51.864;-2.246;2023-04-25T17:03:04;101715.19;;;16.65;36.11
80333;BME280;69652;51.864;-2.246;2023-04-25T17:05:30;101717.91;;;16.08;35.69
80333;BME280;69652;51.864;-2.246;2023-04-25T17:07:56;101711.19;;;16.80;34.83
80333;BME280;69652;51.864;-2.246;2023-04-25T17:10:22;101719.59;;;17.18;34.70
80333;BME280;69652;51.864;-2.246;2023-04-25T17:12:48;101710.16;;;16.02;37.16
80333;BME280;69652;51.864;-2.246;2023-04-25T17:15:16;101713.66;;;16.33;36.30
80333;BME280;69652;51.864;-2.246;2023-04-25T17:17:42;101714.91;;;15.57;36.43
80333;BME280;69652;51.864;-2.246;2023-04-25T17:20:08;101712.63;;;15.36;36.60
80333;BME280;69652;51.864;-2.246;2023-04-25T17:22:40;101698.94;;;18.01;32.38
80333;BME280;69652;51.864;-2.246;2023-04-25T17:25:07;101698.22;;;19.67;31.78
80333;BME280;69652;51.864;-2.246;2023-04-25T17:27:34;101700.13;;;17.92;33.23
80333;BME280;69652;51.864;-2.246;2023-04-25T17:30:00;101683.44;;;18.64;31.00
80333;BME280;69652;51.864;-2.246;2023-04-25T17:32:26;101679.88;;;19.38;30.38
80333;BME280;69652;51.864;-2.246;2023-04-25T17:34:52;101682.06;;;19.78;29.77
80333;BME280;69652;51.864;-2.246;2023-04-25T17:37:18;101667.50;;;20.90;28.11
80333;BME280;69652;51.864;-2.246;2023-04-25T17:39:44;101671.28;;;20.46;30.87
80333;BME280;69652;51.864;-2.246;2023-04-25T17:42:10;101669.09;;;20.27;29.19
80333;BME280;69652;51.864;-2.246;2023-04-25T17:44:37;101670.94;;;18.67;31.57
80333;BME280;69652;51.864;-2.246;2023-04-25T17:47:03;101668.16;;;18.46;30.81
80333;BME280;69652;51.864;-2.246;2023-04-25T17:49:28;101676.44;;;18.37;31.20
80333;BME280;69652;51.864;-2.246;2023-04-25T17:51:54;101685.72;;;16.62;34.41
80333;BME280;69652;51.864;-2.246;2023-04-25T17:54:22;101684.97;;;15.38;34.95
80333;BME280;69652;51.864;-2.246;2023-04-25T17:56:49;101682.81;;;15.26;36.81
80333;BME280;69652;51.864;-2.246;2023-04-25T17:59:14;101685.63;;;14.76;36.16
80333;BME280;69652;51.864;-2.246;2023-04-25T18:01:40;101685.47;;;14.32;37.72
80333;BME280;69652;51.864;-2.246;2023-04-25T18:04:05;101683.16;;;14.12;37.46
80333;BME280;69652;51.864;-2.246;2023-04-25T18:06:31;101686.16;;;13.96;37.26
80333;BME280;69652;51.864;-2.246;2023-04-25T18:08:57;101692.56;;;13.92;37.59
80333;BME280;69652;51.864;-2.246;2023-04-25T18:11:23;101689.50;;;13.93;37.54
80333;BME280;69652;51.864;-2.246;2023-04-25T18:13:49;101688.47;;;13.76;37.52
80333;BME280;69652;51.864;-2.246;2023-04-25T18:16:15;101693.91;;;13.62;38.34
80333;BME280;69652;51.864;-2.246;2023-04-25T18:18:41;101684.88;;;13.48;38.74
80333;BME280;69652;51.864;-2.246;2023-04-25T18:21:08;101691.88;;;13.54;39.86
80333;BME280;69652;51.864;-2.246;2023-04-25T18:23:34;101694.00;;;13.24;41.55
80333;BME280;69652;51.864;-2.246;2023-04-25T18:26:01;101698.97;;;13.36;40.36
80333;BME280;69652;51.864;-2.246;2023-04-25T18:28:27;101695.25;;;13.32;40.35
80333;BME280;69652;51.864;-2.246;2023-04-25T18:30:52;101697.91;;;13.18;40.52
80333;BME280;69652;51.864;-2.246;2023-04-25T18:33:19;101695.47;;;13.17;40.14
80333;BME280;69652;51.864;-2.246;2023-04-25T18:35:46;101692.94;;;13.01;39.83
80333;BME280;69652;51.864;-2.246;2023-04-25T18:38:11;101699.28;;;12.78;41.25
80333;BME280;69652;51.864;-2.246;2023-04-25T18:40:37;101708.84;;;12.76;41.31
80333;BME280;69652;51.864;-2.246;2023-04-25T18:43:03;101705.03;;;12.77;41.79
80333;BME280;69652;51.864;-2.246;2023-04-25T18:45:28;101704.94;;;12.44;43.72
80333;BME280;69652;51.864;-2.246;2023-04-25T18:47:54;101708.41;;;12.50;42.74
80333;BME280;69652;51.864;-2.246;2023-04-25T18:50:19;101715.53;;;12.46;42.79
80333;BME280;69652;51.864;-2.246;2023-04-25T18:52:47;101713.00;;;12.30;42.88
80333;BME280;69652;51.864;-2.246;2023-04-25T18:55:13;101720.94;;;12.27;41.82
80333;BME280;69652;51.864;-2.246;2023-04-25T18:57:38;101719.38;;;12.21;42.84
80333;BME280;69652;51.864;-2.246;2023-04-25T19:00:05;101726.31;;;12.08;43.81
80333;BME280;69652;51.864;-2.246;2023-04-25T19:02:33;101725.78;;;12.06;42.17
80333;BME280;69652;51.864;-2.246;2023-04-25T19:04:58;101725.31;;;11.99;43.92
80333;BME280;69652;51.864;-2.246;2023-04-25T19:07:23;101729.19;;;11.93;44.21
80333;BME280;69652;51.864;-2.246;2023-04-25T19:09:49;101740.75;;;11.80;43.62
80333;BME280;69652;51.864;-2.246;2023-04-25T19:12:14;101737.72;;;11.81;43.52
80333;BME280;69652;51.864;-2.246;2023-04-25T19:14:40;101735.59;;;11.78;46.23
80333;BME280;69652;51.864;-2.246;2023-04-25T19:17:07;101740.50;;;11.76;44.94
80333;BME280;69652;51.864;-2.246;2023-04-25T19:19:32;101738.13;;;11.65;47.30
80333;BME280;69652;51.864;-2.246;2023-04-25T19:21:58;101732.19;;;11.57;45.99
80333;BME280;69652;51.864;-2.246;2023-04-25T19:24:23;101734.91;;;11.57;46.22
80333;BME280;69652;51.864;-2.246;2023-04-25T19:26:49;101734.97;;;11.52;46.26
80333;BME280;69652;51.864;-2.246;2023-04-25T19:29:15;101739.06;;;11.50;44.13
80333;BME280;69652;51.864;-2.246;2023-04-25T19:31:42;101739.44;;;11.38;45.88
80333;BME280;69652;51.864;-2.246;2023-04-25T19:34:08;101750.47;;;11.52;45.46
80333;BME280;69652;51.864;-2.246;2023-04-25T19:36:36;101754.53;;;11.54;44.91
80333;BME280;69652;51.864;-2.246;2023-04-25T19:39:02;101752.66;;;11.50;43.80
80333;BME280;69652;51.864;-2.246;2023-04-25T19:41:30;101750.88;;;11.35;46.56
80333;BME280;69652;51.864;-2.246;2023-04-25T19:43:55;101756.03;;;11.37;46.06
80333;BME280;69652;51.864;-2.246;2023-04-25T19:46:21;101763.41;;;11.31;46.28
80333;BME280;69652;51.864;-2.246;2023-04-25T19:48:47;101762.56;;;11.36;45.47
80333;BME280;69652;51.864;-2.246;2023-04-25T19:51:12;101762.06;;;11.29;45.22
80333;BME280;69652;51.864;-2.246;2023-04-25T19:53:38;101763.72;;;11.25;46.88
80333;BME280;69652;51.864;-2.246;2023-04-25T19:56:04;101764.53;;;11.25;47.28
80333;BME280;69652;51.864;-2.246;2023-04-25T19:58:30;101759.44;;;11.13;46.51
80333;BME280;69652;51.864;-2.246;2023-04-25T20:00:55;101768.22;;;11.00;47.63
80333;BME280;69652;51.864;-2.246;2023-04-25T20:03:24;101774.97;;;11.08;48.13
80333;BME280;69652;51.864;-2.246;2023-04-25T20:05:51;101775.25;;;11.06;46.96
80333;BME280;69652;51.864;-2.246;2023-04-25T20:08:17;101773.38;;;11.02;47.74
80333;BME280;69652;51.864;-2.246;2023-04-25T20:10:43;101784.56;;;10.95;48.50
80333;BME280;69652;51.864;-2.246;2023-04-25T20:13:08;101786.50;;;10.84;47.97
80333;BME280;69652;51.864;-2.246;2023-04-25T20:15:35;101786.31;;;10.71;48.34
80333;BME280;69652;51.864;-2.246;2023-04-25T20:18:01;101780.06;;;10.70;48.74
80333;BME280;69652;51.864;-2.246;2023-04-25T20:20:26;101790.91;;;10.65;49.00
80333;BME280;69652;51.864;-2.246;2023-04-25T20:22:52;101775.50;;;10.61;48.74
80333;BME280;69652;51.864;-2.246;2023-04-25T20:25:19;101789.28;;;10.64;48.33
80333;BME280;69652;51.864;-2.246;2023-04-25T20:27:45;101776.56;;;10.60;48.33
80333;BME280;69652;51.864;-2.246;2023-04-25T20:30:11;101785.81;;;10.54;48.95
80333;BME280;69652;51.864;-2.246;2023-04-25T20:32:37;101782.34;;;10.33;50.48
80333;BME280;69652;51.864;-2.246;2023-04-25T20:35:04;101786.19;;;10.22;51.80
80333;BME280;69652;51.864;-2.246;2023-04-25T20:37:30;101789.44;;;10.19;51.48
80333;BME280;69652;51.864;-2.246;2023-04-25T20:40:00;101784.25;;;10.17;49.92
80333;BME280;69652;51.864;-2.246;2023-04-25T20:42:26;101784.81;;;10.09;51.63
80333;BME280;69652;51.864;-2.246;2023-04-25T20:44:51;101790.22;;;10.04;51.41
80333;BME280;69652;51.864;-2.246;2023-04-25T20:47:18;101785.91;;;9.98;52.76
80333;BME280;69652;51.864;-2.246;2023-04-25T20:49:44;101787.00;;;9.92;52.79
80333;BME280;69652;51.864;-2.246;2023-04-25T20:52:09;101783.47;;;9.91;53.33
80333;BME280;69652;51.864;-2.246;2023-04-25T20:54:35;101788.88;;;9.91;53.22
80333;BME280;69652;51.864;-2.246;2023-04-25T20:57:00;101788.09;;;9.91;53.14
80333;BME280;69652;51.864;-2.246;2023-04-25T20:59:26;101786.75;;;9.88;52.46
80333;BME280;69652;51.864;-2.246;2023-04-25T21:01:52;101780.75;;;9.81;52.48
80333;BME280;69652;51.864;-2.246;2023-04-25T21:04:19;101788.09;;;9.81;53.26
80333;BME280;69652;51.864;-2.246;2023-04-25T21:06:44;101780.78;;;9.61;53.83
80333;BME280;69652;51.864;-2.246;2023-04-25T21:09:11;101777.00;;;9.67;54.65
80333;BME280;69652;51.864;-2.246;2023-04-25T21:11:36;101779.41;;;9.73;54.72
80333;BME280;69652;51.864;-2.246;2023-04-25T21:14:02;101779.72;;;9.67;55.07
80333;BME280;69652;51.864;-2.246;2023-04-25T21:16:29;101777.25;;;9.60;54.81
80333;BME280;69652;51.864;-2.246;2023-04-25T21:18:57;101781.84;;;9.60;55.48
80333;BME280;69652;51.864;-2.246;2023-04-25T21:21:22;101781.31;;;9.58;54.99